createdAt,value
2022-12-13T00:01:47.152Z,-2.16
2022-12-13T00:04:16.526Z,-2.11
2022-12-13T00:06:44.368Z,-2.07
2022-12-13T00:09:13.871Z,-2.10
2022-12-13T00:11:41.629Z,-2.25
2022-12-13T00:14:11.494Z,-2.16
2022-12-13T00:16:39.291Z,-2.20
2022-12-13T00:19:07.226Z,-2.16
2022-12-13T00:21:36.406Z,-2.21
2022-12-13T00:24:07.118Z,-2.45
2022-12-13T00:26:35.243Z,-2.40
2022-12-13T00:29:04.736Z,-2.36
2022-12-13T00:34:20.431Z,-2.28
2022-12-13T00:36:49.718Z,-2.31
2022-12-13T00:39:20.301Z,-2.32
2022-12-13T00:41:48.449Z,-2.24
2022-12-13T00:44:16.214Z,-2.22
2022-12-13T00:46:44.416Z,-2.22
2022-12-13T00:49:13.672Z,-2.19
2022-12-13T00:51:41.766Z,-2.21
2022-12-13T00:54:11.658Z,-2.25
2022-12-13T00:56:39.492Z,-2.32
2022-12-13T00:59:07.354Z,-2.38
2022-12-13T01:01:37.339Z,-2.22
2022-12-13T01:04:06.615Z,-2.27
2022-12-13T01:06:37.754Z,-2.29
2022-12-13T01:09:07.860Z,-2.37
2022-12-13T01:11:36.883Z,-2.37
2022-12-13T01:14:05.000Z,-2.36
2022-12-13T01:16:32.821Z,-2.32
2022-12-13T01:19:00.608Z,-2.36
2022-12-13T01:21:29.746Z,-2.21
2022-12-13T01:24:04.563Z,-2.16
2022-12-13T01:26:33.067Z,-2.40
2022-12-13T01:29:02.343Z,-2.62
2022-12-13T01:31:30.098Z,-2.43
2022-12-13T01:33:58.281Z,-2.32
2022-12-13T01:36:27.332Z,-2.29
2022-12-13T01:38:58.473Z,-2.26
2022-12-13T01:41:28.740Z,-2.25
2022-12-13T01:44:03.041Z,-2.30
2022-12-13T01:46:33.857Z,-2.55
2022-12-13T01:49:19.725Z,-2.62
2022-12-13T01:51:52.760Z,-2.61
2022-12-13T01:54:23.956Z,-2.70
2022-12-13T01:57:00.792Z,-2.75
2022-12-13T01:59:29.224Z,-2.66
2022-12-13T02:02:00.986Z,-2.58
2022-12-13T02:04:32.563Z,-2.60
2022-12-13T02:07:00.654Z,-2.49
2022-12-13T02:09:29.860Z,-2.58
2022-12-13T02:11:57.676Z,-2.58
2022-12-13T02:14:25.417Z,-2.63
2022-12-13T02:17:01.259Z,-2.56
2022-12-13T02:20:02.571Z,-2.83
2022-12-13T02:22:49.968Z,-2.70
2022-12-13T02:25:35.012Z,-2.81
2022-12-13T02:28:30.677Z,-2.78
2022-12-13T02:31:07.785Z,-2.83
2022-12-13T02:33:51.291Z,-2.88
2022-12-13T02:36:26.809Z,-3.01
2022-12-13T02:39:00.352Z,-2.86
2022-12-13T02:41:37.105Z,-2.91
2022-12-13T02:44:22.187Z,-3.06
2022-12-13T02:46:56.117Z,-3.23
2022-12-13T02:49:26.562Z,-3.14
2022-12-13T02:51:55.354Z,-3.10
2022-12-13T02:54:24.303Z,-2.99
2022-12-13T02:56:55.932Z,-2.88
2022-12-13T02:59:27.996Z,-2.84
2022-12-13T03:02:10.342Z,-3.10
2022-12-13T03:05:03.085Z,-3.18
2022-12-13T03:07:39.832Z,-3.22
2022-12-13T03:10:16.819Z,-3.31
2022-12-13T03:13:11.592Z,-3.49
2022-12-13T03:15:44.825Z,-3.38
2022-12-13T03:18:16.552Z,-3.29
2022-12-13T03:20:48.609Z,-3.16
2022-12-13T03:23:17.979Z,-3.23
2022-12-13T03:25:48.265Z,-3.21
2022-12-13T03:28:16.132Z,-3.13
2022-12-13T03:30:43.858Z,-3.12
2022-12-13T03:33:11.717Z,-3.18
2022-12-13T03:35:44.804Z,-3.08
2022-12-13T03:38:21.930Z,-3.04
2022-12-13T03:40:53.223Z,-3.22
2022-12-13T03:43:22.458Z,-3.27
2022-12-13T03:45:51.209Z,-3.29
2022-12-13T03:48:22.887Z,-3.28
2022-12-13T03:50:53.549Z,-3.22
2022-12-13T03:53:33.498Z,-3.07
2022-12-13T03:56:05.355Z,-3.04
2022-12-13T03:58:37.976Z,-3.02
2022-12-13T04:01:07.621Z,-3.06
2022-12-13T04:03:35.585Z,-3.06
2022-12-13T04:06:05.654Z,-3.11
2022-12-13T04:08:33.452Z,-3.11
2022-12-13T04:11:21.145Z,-3.19
2022-12-13T04:13:47.968Z,-3.18
2022-12-13T04:16:15.731Z,-3.19
2022-12-13T04:18:43.822Z,-3.21
2022-12-13T04:21:12.918Z,-3.21
2022-12-13T04:23:40.636Z,-3.21
2022-12-13T04:26:08.382Z,-3.28
2022-12-13T04:28:36.151Z,-3.29
2022-12-13T04:31:03.900Z,-3.24
2022-12-13T04:33:32.602Z,-3.28
2022-12-13T04:36:00.539Z,-3.20
2022-12-13T04:38:29.603Z,-3.13
2022-12-13T04:41:06.195Z,-3.13
2022-12-13T04:43:33.892Z,-3.05
2022-12-13T04:46:01.630Z,-3.08
2022-12-13T04:48:30.297Z,-3.07
2022-12-13T04:51:01.249Z,-3.12
2022-12-13T04:53:31.001Z,-3.06
2022-12-13T04:55:58.847Z,-3.02
2022-12-13T04:58:26.725Z,-3.06
2022-12-13T05:00:54.485Z,-3.09
2022-12-13T05:03:22.364Z,-3.03
2022-12-13T05:05:50.295Z,-2.96
2022-12-13T05:08:18.254Z,-2.99
2022-12-13T05:10:47.417Z,-3.03
2022-12-13T05:13:15.145Z,-3.05
2022-12-13T05:15:42.841Z,-3.05
2022-12-13T05:18:11.385Z,-3.08
2022-12-13T05:20:39.969Z,-3.08
2022-12-13T05:23:07.836Z,-3.05
2022-12-13T05:25:36.704Z,-3.06
2022-12-13T05:28:08.759Z,-3.26
2022-12-13T05:30:55.141Z,-3.15
2022-12-13T05:33:23.202Z,-3.19
2022-12-13T05:35:54.946Z,-3.11
2022-12-13T05:38:25.605Z,-3.08
2022-12-13T05:40:53.302Z,-3.13
2022-12-13T05:43:23.841Z,-3.10
2022-12-13T05:46:10.342Z,-3.08
2022-12-13T05:48:39.280Z,-3.11
2022-12-13T05:51:10.453Z,-3.10
2022-12-13T05:53:40.499Z,-3.11
2022-12-13T05:56:09.091Z,-3.11
2022-12-13T05:58:39.928Z,-3.23
2022-12-13T06:01:09.184Z,-3.23
2022-12-13T06:03:38.442Z,-3.26
2022-12-13T06:06:08.496Z,-3.10
2022-12-13T06:08:36.520Z,-3.18
2022-12-13T06:11:10.413Z,-3.15
2022-12-13T06:13:42.540Z,-3.15
2022-12-13T06:16:23.319Z,-3.24
2022-12-13T06:19:01.313Z,-3.26
2022-12-13T06:21:41.789Z,-3.27
2022-12-13T06:24:14.706Z,-3.25
2022-12-13T06:26:42.468Z,-3.16
2022-12-13T06:29:24.616Z,-3.13
2022-12-13T06:32:02.515Z,-3.15
2022-12-13T06:34:32.824Z,-3.18
2022-12-13T06:37:01.115Z,-3.18
2022-12-13T06:39:32.853Z,-3.21
2022-12-13T06:42:02.625Z,-3.28
2022-12-13T06:44:31.769Z,-3.36
2022-12-13T06:47:10.578Z,-3.36
2022-12-13T06:49:41.609Z,-3.36
2022-12-13T06:52:11.701Z,-3.32
2022-12-13T06:54:39.727Z,-3.37
2022-12-13T06:57:07.509Z,-3.32
2022-12-13T06:59:36.714Z,-3.19
2022-12-13T07:02:04.613Z,-3.19
2022-12-13T07:04:32.581Z,-3.32
2022-12-13T07:07:01.832Z,-3.43
2022-12-13T07:09:30.677Z,-3.38
2022-12-13T07:11:59.207Z,-3.50
2022-12-13T07:14:27.310Z,-3.59
2022-12-13T07:17:03.097Z,-3.57
2022-12-13T07:19:34.907Z,-3.61
2022-12-13T07:22:06.216Z,-3.50
2022-12-13T07:24:35.213Z,-3.41
2022-12-13T07:27:04.691Z,-3.39
2022-12-13T07:29:32.545Z,-3.40
2022-12-13T07:32:02.271Z,-3.33
2022-12-13T07:34:30.829Z,-3.34
2022-12-13T07:36:59.034Z,-3.28
2022-12-13T07:39:27.231Z,-3.36
2022-12-13T07:41:56.498Z,-3.31
2022-12-13T07:44:24.393Z,-3.39
2022-12-13T07:46:52.236Z,-3.47
2022-12-13T07:49:21.410Z,-3.38
2022-12-13T07:51:49.282Z,-3.37
2022-12-13T07:54:17.596Z,-3.25
2022-12-13T07:56:45.934Z,-3.27
2022-12-13T07:59:14.308Z,-3.44
2022-12-13T08:01:42.226Z,-3.30
2022-12-13T08:04:10.144Z,-3.21
2022-12-13T08:06:41.580Z,-3.22
2022-12-13T08:09:09.725Z,-3.19
2022-12-13T08:11:37.489Z,-3.31
2022-12-13T08:14:06.216Z,-3.31
2022-12-13T08:16:34.090Z,-3.33
2022-12-13T08:19:04.358Z,-3.32
2022-12-13T08:21:55.022Z,-3.23
2022-12-13T08:24:26.169Z,-3.25
2022-12-13T08:26:54.024Z,-3.15
2022-12-13T08:29:33.654Z,-3.06
2022-12-13T08:32:04.315Z,-3.02
2022-12-13T08:34:32.576Z,-3.04
2022-12-13T08:37:01.611Z,-2.98
2022-12-13T08:39:34.473Z,-3.03
2022-12-13T08:42:16.812Z,-3.05
2022-12-13T08:44:47.265Z,-3.00
2022-12-13T08:47:24.519Z,-3.12
2022-12-13T08:49:54.071Z,-3.35
2022-12-13T08:52:24.117Z,-3.24
2022-12-13T08:54:53.231Z,-3.24
2022-12-13T08:57:21.708Z,-3.10
2022-12-13T08:59:49.720Z,-3.00
2022-12-13T09:02:17.663Z,-2.93
2022-12-13T09:04:45.845Z,-2.95
2022-12-13T09:07:14.029Z,-2.88
2022-12-13T09:09:41.795Z,-2.83
2022-12-13T09:12:30.373Z,-3.01
2022-12-13T09:15:01.630Z,-2.98
2022-12-13T09:17:37.262Z,-2.97
2022-12-13T09:20:10.125Z,-3.09
2022-12-13T09:23:02.040Z,-2.91
2022-12-13T09:25:36.693Z,-2.93
2022-12-13T09:28:09.495Z,-2.85
2022-12-13T09:30:38.652Z,-2.84
2022-12-13T09:33:28.601Z,-2.73
2022-12-13T09:35:55.069Z,-2.62
2022-12-13T09:38:22.839Z,-2.64
2022-12-13T09:40:59.067Z,-2.59
2022-12-13T09:43:42.571Z,-2.65
2022-12-13T09:46:34.898Z,-2.54
2022-12-13T09:49:23.329Z,-2.64
2022-12-13T09:52:11.615Z,-2.70
2022-12-13T09:54:48.162Z,-2.74
2022-12-13T09:57:30.977Z,-2.83
2022-12-13T10:00:03.730Z,-2.82
2022-12-13T10:02:34.725Z,-2.74
2022-12-13T10:05:22.943Z,-2.52
2022-12-13T10:07:55.809Z,-2.54
2022-12-13T10:10:24.485Z,-2.45
2022-12-13T10:13:00.534Z,-2.33
2022-12-13T10:15:32.405Z,-2.28
2022-12-13T10:18:03.708Z,-2.36
2022-12-13T10:20:31.756Z,-2.30
2022-12-13T10:23:31.197Z,-2.22
2022-12-13T10:25:51.526Z,-2.19
2022-12-13T10:28:25.871Z,-2.02
2022-12-13T10:30:55.913Z,-2.06
2022-12-13T10:33:26.637Z,-1.96
2022-12-13T10:36:09.562Z,-1.87
2022-12-13T10:38:40.776Z,-1.72
2022-12-13T10:41:31.041Z,-1.65
2022-12-13T10:44:17.979Z,-1.66
2022-12-13T10:46:53.857Z,-1.74
2022-12-13T10:49:25.102Z,-1.74
2022-12-13T10:51:54.261Z,-1.82
2022-12-13T10:54:28.490Z,-1.86
2022-12-13T10:57:00.275Z,-1.91
2022-12-13T10:59:35.650Z,-1.83
2022-12-13T11:02:28.932Z,-1.66
2022-12-13T11:04:59.603Z,-1.65
2022-12-13T11:07:30.325Z,-1.66
2022-12-13T11:10:04.999Z,-1.60
2022-12-13T11:12:34.287Z,-1.63
2022-12-13T11:15:06.372Z,-1.53
2022-12-13T11:17:45.559Z,-1.52
2022-12-13T11:20:20.768Z,-1.52
2022-12-13T11:22:49.314Z,-1.43
2022-12-13T11:25:22.369Z,-1.55
2022-12-13T11:28:05.667Z,-1.44
2022-12-13T11:31:04.929Z,-1.46
2022-12-13T11:33:47.829Z,-1.43
2022-12-13T11:36:28.845Z,-1.35
2022-12-13T11:39:13.215Z,-1.38
2022-12-13T11:41:45.964Z,-1.33
2022-12-13T11:44:18.843Z,-1.42
2022-12-13T11:46:52.352Z,-1.31
2022-12-13T11:49:34.133Z,-1.39
2022-12-13T11:52:07.025Z,-1.33
2022-12-13T11:54:41.045Z,-1.27
2022-12-13T11:57:21.909Z,-1.26
2022-12-13T12:00:02.295Z,-1.12
2022-12-13T12:02:34.630Z,-1.04
2022-12-13T12:05:07.567Z,-0.95
2022-12-13T12:07:58.526Z,-0.67
2022-12-13T12:10:33.127Z,-0.41
2022-12-13T12:13:08.391Z,-0.26
2022-12-13T12:15:42.446Z,-0.06
2022-12-13T12:18:15.637Z,0.01
2022-12-13T12:20:57.283Z,0.10
2022-12-13T12:23:46.221Z,0.25
2022-12-13T12:26:20.866Z,0.21
2022-12-13T12:29:12.107Z,0.40
2022-12-13T12:31:53.255Z,0.51
2022-12-13T12:34:33.772Z,0.64
2022-12-13T12:37:17.594Z,0.71
2022-12-13T12:39:56.177Z,0.81
2022-12-13T12:43:13.254Z,0.76
2022-12-13T12:45:58.011Z,0.46
2022-12-13T12:48:56.517Z,0.29
2022-12-13T12:51:36.776Z,0.06
2022-12-13T12:54:27.431Z,-0.03
2022-12-13T12:57:07.563Z,-0.10
2022-12-13T12:59:46.504Z,-0.16
2022-12-13T13:02:22.704Z,-0.20
2022-12-13T13:04:58.632Z,-0.29
2022-12-13T13:07:32.308Z,-0.30
2022-12-13T13:10:16.869Z,-0.27
2022-12-13T13:13:11.306Z,-0.29
2022-12-13T13:15:57.173Z,-0.34
2022-12-13T13:18:46.735Z,-0.35
2022-12-13T13:21:33.193Z,-0.37
2022-12-13T13:24:16.613Z,-0.51
2022-12-13T13:26:48.002Z,-0.43
2022-12-13T13:29:27.785Z,-0.40
2022-12-13T13:32:01.431Z,-0.45
2022-12-13T13:34:31.697Z,-0.48
2022-12-13T13:36:59.717Z,-0.47
2022-12-13T13:39:56.861Z,-0.44
2022-12-13T13:42:27.444Z,-0.39
2022-12-13T13:45:20.056Z,-0.41
2022-12-13T13:48:03.610Z,-0.31
2022-12-13T13:51:22.573Z,-0.36
2022-12-13T13:54:27.664Z,-0.38
2022-12-13T13:58:07.232Z,-0.52
2022-12-13T14:00:22.607Z,-0.57
2022-12-13T14:03:32.853Z,-0.62
2022-12-13T14:06:32.428Z,-0.61
2022-12-13T14:09:52.743Z,-0.67
2022-12-13T14:12:50.041Z,-0.67
2022-12-13T14:15:49.561Z,-0.74
2022-12-13T14:18:53.352Z,-0.77
2022-12-13T14:21:29.888Z,-0.76
2022-12-13T14:24:13.906Z,-0.75
2022-12-13T14:26:58.329Z,-0.80
2022-12-13T14:29:31.601Z,-0.85
2022-12-13T14:32:01.418Z,-0.82
2022-12-13T14:34:31.818Z,-0.84
2022-12-13T14:37:02.004Z,-0.93
2022-12-13T14:39:31.195Z,-0.87
2022-12-13T14:42:01.144Z,-0.81
2022-12-13T14:44:34.405Z,-0.84
2022-12-13T14:47:06.210Z,-0.85
2022-12-13T14:49:38.137Z,-0.86
2022-12-13T14:52:12.141Z,-0.87
2022-12-13T14:54:58.132Z,-0.88
2022-12-13T14:57:30.371Z,-0.89
2022-12-13T15:00:00.449Z,-0.94
2022-12-13T15:02:32.398Z,-0.86
2022-12-13T15:05:03.982Z,-0.90
2022-12-13T15:07:36.397Z,-0.81
2022-12-13T15:10:08.856Z,-0.79
2022-12-13T15:12:37.778Z,-0.75
2022-12-13T15:15:09.347Z,-0.82
2022-12-13T15:17:42.268Z,-0.93
2022-12-13T15:20:24.745Z,-0.91
2022-12-13T15:22:59.612Z,-0.86
2022-12-13T15:25:28.052Z,-0.85
2022-12-13T15:27:56.589Z,-0.82
2022-12-13T15:30:30.577Z,-0.83
2022-12-13T15:33:08.891Z,-0.85
2022-12-13T15:35:37.927Z,-0.84
2022-12-13T15:38:06.055Z,-0.97
2022-12-13T15:40:34.536Z,-0.99
2022-12-13T15:43:02.781Z,-0.92
2022-12-13T15:45:36.905Z,-0.87
2022-12-13T15:48:07.218Z,-1.05
2022-12-13T15:50:36.753Z,-1.14
2022-12-13T15:53:07.255Z,-1.30
2022-12-13T15:55:37.065Z,-1.15
2022-12-13T15:58:21.607Z,-1.09
2022-12-13T16:00:50.362Z,-1.06
2022-12-13T16:03:23.175Z,-1.10
2022-12-13T16:05:53.755Z,-1.08
2022-12-13T16:08:28.470Z,-1.08
2022-12-13T16:10:57.540Z,-1.08
2022-12-13T16:13:27.407Z,-1.13
2022-12-13T16:16:08.935Z,-1.11
2022-12-13T16:18:47.090Z,-1.11
2022-12-13T16:21:15.217Z,-1.19
2022-12-13T16:23:48.122Z,-1.29
2022-12-13T16:26:22.951Z,-1.30
2022-12-13T16:28:50.906Z,-1.31
2022-12-13T16:31:21.468Z,-1.24
2022-12-13T16:33:50.766Z,-1.38
2022-12-13T16:36:19.370Z,-1.38
2022-12-13T16:38:47.275Z,-1.40
2022-12-13T16:41:16.717Z,-1.33
2022-12-13T16:43:54.751Z,-1.30
2022-12-13T16:47:11.548Z,-1.35
2022-12-13T16:49:20.578Z,-1.40
2022-12-13T16:51:49.319Z,-1.32
2022-12-13T16:54:18.460Z,-1.39
2022-12-13T16:56:46.476Z,-1.38
2022-12-13T16:59:16.048Z,-1.37
2022-12-13T17:01:45.331Z,-1.38
2022-12-13T17:04:20.199Z,-1.35
2022-12-13T17:06:50.924Z,-1.29
2022-12-13T17:09:22.434Z,-1.10
2022-12-13T17:11:50.293Z,-1.03
2022-12-13T17:14:18.377Z,-1.08
2022-12-13T17:16:46.364Z,-1.04
2022-12-13T17:19:17.300Z,-0.99
2022-12-13T17:21:45.774Z,-1.06
2022-12-13T17:24:15.302Z,-1.17
2022-12-13T17:26:53.715Z,-1.29
2022-12-13T17:29:22.170Z,-1.46
2022-12-13T17:31:51.244Z,-1.51
2022-12-13T17:34:19.066Z,-1.54
2022-12-13T17:36:48.082Z,-1.57
2022-12-13T17:39:17.425Z,-1.58
2022-12-13T17:41:54.690Z,-1.59
2022-12-13T17:44:24.213Z,-1.65
2022-12-13T17:46:54.557Z,-1.61
2022-12-13T17:49:23.550Z,-1.62
2022-12-13T17:51:54.503Z,-1.61
2022-12-13T17:54:25.238Z,-1.54
2022-12-13T17:56:54.536Z,-1.50
2022-12-13T17:59:23.087Z,-1.51
2022-12-13T18:01:51.977Z,-1.49
2022-12-13T18:04:20.489Z,-1.46
2022-12-13T18:06:48.549Z,-1.45
2022-12-13T18:09:16.529Z,-1.54
2022-12-13T18:11:45.802Z,-1.58
2022-12-13T18:14:13.738Z,-1.52
2022-12-13T18:16:41.988Z,-1.54
2022-12-13T18:19:14.156Z,-1.65
2022-12-13T18:21:43.229Z,-1.59
2022-12-13T18:24:11.975Z,-1.65
2022-12-13T18:26:40.263Z,-1.66
2022-12-13T18:29:09.805Z,-1.83
2022-12-13T18:31:37.811Z,-1.89
2022-12-13T18:34:06.042Z,-1.88
2022-12-13T18:36:34.888Z,-1.86
2022-12-13T18:39:02.919Z,-1.82
2022-12-13T18:41:33.140Z,-1.87
2022-12-13T18:44:02.782Z,-1.83
2022-12-13T18:46:35.832Z,-1.91
2022-12-13T18:49:05.841Z,-1.82
2022-12-13T18:51:34.121Z,-1.81
2022-12-13T18:54:02.023Z,-1.78
2022-12-13T18:56:29.813Z,-1.88
2022-12-13T18:58:58.302Z,-1.90
2022-12-13T19:01:28.759Z,-1.95
2022-12-13T19:03:58.055Z,-1.93
2022-12-13T19:06:28.364Z,-1.91
2022-12-13T19:08:58.101Z,-2.04
2022-12-13T19:11:27.275Z,-2.02
2022-12-13T19:13:55.809Z,-2.05
2022-12-13T19:16:24.734Z,-2.12
2022-12-13T19:18:52.569Z,-2.19
2022-12-13T19:21:23.121Z,-2.25
2022-12-13T19:23:57.062Z,-2.37
2022-12-13T19:26:26.695Z,-2.49
2022-12-13T19:28:56.629Z,-2.41
2022-12-13T19:31:30.508Z,-2.35
2022-12-13T19:33:59.895Z,-2.43
2022-12-13T19:36:29.080Z,-2.42
2022-12-13T19:38:56.943Z,-2.46
2022-12-13T19:41:25.009Z,-2.54
2022-12-13T19:43:54.240Z,-2.48
2022-12-13T19:46:22.596Z,-2.47
2022-12-13T19:48:50.433Z,-2.48
2022-12-13T19:51:18.474Z,-2.43
2022-12-13T19:53:47.520Z,-2.43
2022-12-13T19:56:17.709Z,-2.38
2022-12-13T19:58:46.927Z,-2.46
2022-12-13T20:01:16.203Z,-2.35
2022-12-13T20:03:46.216Z,-2.31
2022-12-13T20:06:17.194Z,-2.40
2022-12-13T20:08:46.989Z,-2.45
2022-12-13T20:11:19.029Z,-2.48
2022-12-13T20:13:47.211Z,-2.64
2022-12-13T20:16:17.175Z,-2.45
2022-12-13T20:18:44.888Z,-2.30
2022-12-13T20:21:14.695Z,-2.21
2022-12-13T20:23:49.471Z,-2.31
2022-12-13T20:26:21.748Z,-2.54
2022-12-13T20:28:50.437Z,-2.65
2022-12-13T20:31:20.240Z,-2.54
2022-12-13T20:33:48.929Z,-2.55
2022-12-13T20:36:26.422Z,-2.59
2022-12-13T20:38:56.437Z,-2.59
2022-12-13T20:41:27.259Z,-2.68
2022-12-13T20:43:57.209Z,-2.64
2022-12-13T20:46:27.038Z,-2.66
2022-12-13T20:48:57.487Z,-2.57
2022-12-13T20:51:28.301Z,-2.62
2022-12-13T20:53:58.593Z,-2.81
2022-12-13T20:56:29.411Z,-2.87
2022-12-13T20:58:57.365Z,-2.52
2022-12-13T21:01:30.226Z,-2.39
2022-12-13T21:04:01.009Z,-2.27
2022-12-13T21:06:29.710Z,-2.19
2022-12-13T21:09:02.324Z,-2.28
2022-12-13T21:11:35.081Z,-2.22
2022-12-13T21:14:09.197Z,-2.30
2022-12-13T21:16:42.695Z,-2.42
2022-12-13T21:19:12.608Z,-2.59
2022-12-13T21:21:40.847Z,-2.64
2022-12-13T21:24:10.025Z,-2.82
2022-12-13T21:26:39.510Z,-2.83
2022-12-13T21:29:10.783Z,-3.06
2022-12-13T21:31:40.778Z,-3.06
2022-12-13T21:34:09.200Z,-2.92
2022-12-13T21:36:39.768Z,-2.89
2022-12-13T21:39:12.698Z,-2.91
2022-12-13T21:41:42.644Z,-2.89
2022-12-13T21:44:11.798Z,-2.86
2022-12-13T21:47:10.768Z,-2.89
2022-12-13T21:49:28.855Z,-2.98
2022-12-13T21:51:57.552Z,-2.99
2022-12-13T21:54:25.648Z,-3.04
2022-12-13T21:57:12.435Z,-3.00
2022-12-13T21:59:40.661Z,-2.93
2022-12-13T22:02:14.983Z,-3.08
2022-12-13T22:04:45.175Z,-3.03
2022-12-13T22:07:15.588Z,-2.93
2022-12-13T22:09:44.135Z,-2.86
2022-12-13T22:12:20.521Z,-2.88
2022-12-13T22:14:48.796Z,-2.86
2022-12-13T22:17:17.067Z,-2.90
2022-12-13T22:19:48.293Z,-2.86
2022-12-13T22:22:18.152Z,-2.95
2022-12-13T22:24:53.474Z,-2.96
2022-12-13T22:27:27.572Z,-2.98
2022-12-13T22:29:57.645Z,-2.92
2022-12-13T22:32:26.217Z,-2.98
2022-12-13T22:34:54.277Z,-2.94
2022-12-13T22:37:23.110Z,-2.92
2022-12-13T22:39:51.153Z,-3.01
2022-12-13T22:42:18.974Z,-3.10
2022-12-13T22:44:48.613Z,-3.04
2022-12-13T22:47:16.417Z,-3.06
2022-12-13T22:49:44.420Z,-3.05
2022-12-13T22:52:16.663Z,-3.00
2022-12-13T22:54:44.440Z,-2.97
2022-12-13T22:57:12.163Z,-2.90
2022-12-13T22:59:40.034Z,-2.76
2022-12-13T23:02:09.696Z,-2.59
2022-12-13T23:04:39.315Z,-2.50
2022-12-13T23:07:07.095Z,-2.41
2022-12-13T23:09:34.765Z,-2.41
2022-12-13T23:12:20.036Z,-2.44
2022-12-13T23:14:47.819Z,-2.51
2022-12-13T23:17:16.986Z,-2.73
2022-12-13T23:19:48.768Z,-2.87
2022-12-13T23:22:18.839Z,-2.89
2022-12-13T23:24:46.589Z,-2.92
2022-12-13T23:27:14.409Z,-3.07
2022-12-13T23:29:43.503Z,-3.02
2022-12-13T23:32:12.077Z,-2.98
2022-12-13T23:34:41.148Z,-3.00
2022-12-13T23:37:08.872Z,-3.10
2022-12-13T23:39:37.862Z,-3.08
2022-12-13T23:42:06.601Z,-3.11
2022-12-13T23:44:34.584Z,-3.11
2022-12-13T23:47:02.645Z,-3.12
2022-12-13T23:49:30.363Z,-3.13
2022-12-13T23:51:59.426Z,-3.10
2022-12-13T23:54:27.040Z,-3.20
2022-12-13T23:56:54.896Z,-3.28
2022-12-13T23:59:25.664Z,-3.42
